createdAt,value
2019-03-16T00:00:34.899Z,1.53
2019-03-16T00:03:08.435Z,1.80
2019-03-16T00:05:49.180Z,1.00
2019-03-16T00:08:20.542Z,2.87
2019-03-16T00:10:55.186Z,1.00
2019-03-16T00:13:26.297Z,2.67
2019-03-16T00:15:57.725Z,1.77
2019-03-16T00:18:50.039Z,1.57
2019-03-16T00:21:22.503Z,2.43
2019-03-16T00:23:53.626Z,2.27
2019-03-16T00:26:24.833Z,2.10
2019-03-16T00:29:06.685Z,1.10
2019-03-16T00:31:39.856Z,1.43
2019-03-16T00:34:10.683Z,1.40
2019-03-16T00:36:42.356Z,1.90
2019-03-16T00:39:21.366Z,1.83
2019-03-16T00:42:05.060Z,0.70
2019-03-16T00:44:40.319Z,1.10
2019-03-16T00:47:10.954Z,1.03
2019-03-16T00:49:44.932Z,1.50
2019-03-16T00:52:16.258Z,1.60
2019-03-16T00:55:02.449Z,1.23
2019-03-16T00:57:33.385Z,1.17
2019-03-16T01:00:04.186Z,2.27
2019-03-16T01:02:35.164Z,0.67
2019-03-16T01:05:07.796Z,2.03
2019-03-16T01:07:39.176Z,1.67
2019-03-16T01:10:10.322Z,0.90
2019-03-16T01:12:42.149Z,0.60
2019-03-16T01:15:12.909Z,1.00
2019-03-16T01:17:44.902Z,1.50
2019-03-16T01:20:15.635Z,0.77
2019-03-16T01:22:47.404Z,2.27
2019-03-16T01:25:18.983Z,1.23
2019-03-16T01:27:50.488Z,1.47
2019-03-16T01:30:21.549Z,0.90
2019-03-16T01:32:52.579Z,1.03
2019-03-16T01:35:23.238Z,0.87
2019-03-16T01:37:54.710Z,2.80
2019-03-16T01:40:26.937Z,2.47
2019-03-16T01:42:58.879Z,1.23
2019-03-16T01:45:37.413Z,1.00
2019-03-16T01:48:10.340Z,1.07
2019-03-16T01:50:43.358Z,1.10
2019-03-16T01:53:14.885Z,0.60
2019-03-16T01:55:47.413Z,0.57
2019-03-16T01:58:20.215Z,0.93
2019-03-16T02:00:52.546Z,1.57
2019-03-16T03:01:52.839Z,0.90
2019-03-16T03:04:23.146Z,0.87
2019-03-16T03:06:53.852Z,1.10
2019-03-16T03:09:25.672Z,1.07
2019-03-16T03:12:03.681Z,2.33
2019-03-16T03:14:35.157Z,1.63
2019-03-16T03:17:06.098Z,2.10
2019-03-16T03:19:37.824Z,1.73
2019-03-16T03:22:10.184Z,2.60
2019-03-16T03:24:44.156Z,1.40
2019-03-16T03:27:14.079Z,2.30
2019-03-16T03:29:51.104Z,1.50
2019-03-16T03:32:25.646Z,1.87
2019-03-16T03:34:58.643Z,3.30
2019-03-16T03:37:31.861Z,1.10
2019-03-16T03:40:12.746Z,2.07
2019-03-16T03:43:11.153Z,1.17
2019-03-16T03:45:45.565Z,0.63
2019-03-16T03:48:21.978Z,1.60
2019-03-16T03:50:53.304Z,1.50
2019-03-16T03:53:24.729Z,3.03
2019-03-16T03:55:56.751Z,1.43
2019-03-16T03:58:28.316Z,1.10
2019-03-16T04:00:59.418Z,0.73
2019-03-16T04:03:30.572Z,0.90
2019-03-16T04:06:22.171Z,1.37
2019-03-16T04:08:54.016Z,0.80
2019-03-16T04:11:28.399Z,1.90
2019-03-16T04:14:01.886Z,0.93
2019-03-16T04:16:33.198Z,1.30
2019-03-16T04:19:06.384Z,1.00
2019-03-16T04:21:37.426Z,2.40
2019-03-16T04:24:08.832Z,0.60
2019-03-16T04:26:40.056Z,1.53
2019-03-16T04:29:11.506Z,1.47
2019-03-16T04:31:42.485Z,0.90
2019-03-16T04:34:13.242Z,0.70
2019-03-16T04:36:45.639Z,1.23
2019-03-16T04:39:24.191Z,2.90
2019-03-16T04:41:55.895Z,1.30
2019-03-16T04:44:27.482Z,3.23
2019-03-16T04:46:58.164Z,1.00
2019-03-16T04:49:30.062Z,2.10
2019-03-16T04:52:03.302Z,0.80
2019-03-16T04:54:34.681Z,1.33
2019-03-16T04:57:06.003Z,1.80
2019-03-16T04:59:37.140Z,1.63
2019-03-16T05:02:08.203Z,1.73
2019-03-16T05:04:42.800Z,1.07
2019-03-16T05:07:13.583Z,1.23
2019-03-16T05:09:44.626Z,0.77
2019-03-16T05:12:15.660Z,1.43
2019-03-16T05:14:46.762Z,1.03
2019-03-16T05:17:17.719Z,1.30
2019-03-16T05:19:49.387Z,1.20
2019-03-16T05:22:20.159Z,0.90
2019-03-16T05:24:51.541Z,1.60
2019-03-16T05:27:22.699Z,1.83
2019-03-16T05:29:54.016Z,1.13
2019-03-16T05:32:26.442Z,1.37
2019-03-16T05:34:57.042Z,1.90
2019-03-16T05:37:30.157Z,1.23
2019-03-16T05:40:01.558Z,1.53
2019-03-16T05:42:33.245Z,1.87
2019-03-16T05:45:04.941Z,3.50
2019-03-16T05:47:36.264Z,1.60
2019-03-16T05:50:07.941Z,1.50
2019-03-16T05:52:39.152Z,1.33
2019-03-16T05:55:10.990Z,1.23
2019-03-16T05:57:42.476Z,2.23
2019-03-16T06:00:14.207Z,2.40
2019-03-16T06:02:45.884Z,1.73
2019-03-16T06:05:17.458Z,1.23
2019-03-16T06:07:48.511Z,1.47
2019-03-16T06:10:19.499Z,1.27
2019-03-16T06:12:51.190Z,0.87
2019-03-16T06:15:26.407Z,2.67
2019-03-16T06:17:57.893Z,2.00
2019-03-16T06:20:30.154Z,0.80
2019-03-16T06:23:00.850Z,1.47
2019-03-16T06:25:32.251Z,1.93
2019-03-16T06:28:04.015Z,1.87
2019-03-16T06:30:46.245Z,0.80
2019-03-16T06:33:17.203Z,2.43
2019-03-16T06:35:48.225Z,2.43
2019-03-16T06:38:19.096Z,1.30
2019-03-16T06:40:50.096Z,0.97
2019-03-16T06:43:21.186Z,1.60
2019-03-16T06:45:52.968Z,1.70
2019-03-16T06:48:23.956Z,1.17
2019-03-16T06:51:38.371Z,1.77
2019-03-16T06:54:09.353Z,1.30
2019-03-16T06:56:40.733Z,1.47
2019-03-16T06:59:11.586Z,1.50
2019-03-16T07:01:43.960Z,0.90
2019-03-16T07:04:15.666Z,0.90
2019-03-16T07:06:46.763Z,1.00
2019-03-16T07:09:18.519Z,1.43
2019-03-16T07:11:49.856Z,2.13
2019-03-16T07:14:35.576Z,1.17
2019-03-16T07:17:08.990Z,2.60
2019-03-16T07:19:40.564Z,2.23
2019-03-16T07:22:11.907Z,1.93
2019-03-16T07:24:44.698Z,3.43
2019-03-16T07:27:25.575Z,1.60
2019-03-16T07:30:02.608Z,1.43
2019-03-16T07:32:33.559Z,0.97
2019-03-16T07:35:05.336Z,2.40
2019-03-16T07:37:36.203Z,2.10
2019-03-16T07:40:07.084Z,0.70
2019-03-16T07:42:38.093Z,2.30
2019-03-16T07:45:09.691Z,2.00
2019-03-16T07:47:50.854Z,0.83
2019-03-16T07:50:21.944Z,2.27
2019-03-16T07:52:53.123Z,3.53
2019-03-16T07:55:24.456Z,0.90
2019-03-16T07:57:56.027Z,1.13
2019-03-16T08:00:29.268Z,1.17
2019-03-16T08:02:59.919Z,1.70
2019-03-16T08:05:31.463Z,1.57
2019-03-16T08:08:03.829Z,2.40
2019-03-16T08:10:34.922Z,1.00
2019-03-16T08:13:05.966Z,2.30
2019-03-16T08:15:36.657Z,2.27
2019-03-16T08:18:08.053Z,2.20
2019-03-16T08:20:39.153Z,2.00
2019-03-16T08:23:09.920Z,1.10
2019-03-16T08:25:47.490Z,0.80
2019-03-16T08:28:18.646Z,2.03
2019-03-16T08:30:51.785Z,1.40
2019-03-16T08:33:23.082Z,0.60
2019-03-16T08:35:54.473Z,0.50
2019-03-16T08:38:25.537Z,2.37
2019-03-16T08:40:56.340Z,1.33
2019-03-16T08:43:27.038Z,1.50
2019-03-16T08:46:08.719Z,1.53
2019-03-16T08:48:41.701Z,0.87
2019-03-16T08:51:13.403Z,2.00
2019-03-16T08:53:45.320Z,1.47
2019-03-16T08:56:16.783Z,1.50
2019-03-16T08:58:47.128Z,1.00
2019-03-16T09:01:18.714Z,3.13
2019-03-16T09:03:49.438Z,1.03
2019-03-16T09:06:20.670Z,1.50
2019-03-16T09:08:51.743Z,1.27
2019-03-16T09:11:22.972Z,1.97
2019-03-16T09:13:53.957Z,1.90
2019-03-16T09:16:25.319Z,1.53
2019-03-16T09:19:03.108Z,1.13
2019-03-16T09:21:34.226Z,1.80
2019-03-16T09:24:04.854Z,1.00
2019-03-16T09:26:36.236Z,1.40
2019-03-16T09:29:15.056Z,2.87
2019-03-16T09:31:40.193Z,0.87
2019-03-16T09:34:11.086Z,1.53
2019-03-16T09:36:42.735Z,0.73
2019-03-16T09:39:15.760Z,2.50
2019-03-16T09:41:47.479Z,1.82
2019-03-16T09:44:21.016Z,1.45
2019-03-16T09:46:51.949Z,2.27
2019-03-16T09:49:23.368Z,2.10
2019-03-16T09:51:54.407Z,2.27
2019-03-16T09:54:29.832Z,2.27
2019-03-16T09:57:01.825Z,2.20
2019-03-16T09:59:33.902Z,1.83
2019-03-16T10:02:04.596Z,1.43
2019-03-16T10:04:36.523Z,1.73
2019-03-16T10:07:07.955Z,1.70
2019-03-16T10:09:38.995Z,1.43
2019-03-16T10:12:10.324Z,3.07
2019-03-16T10:14:41.315Z,1.37
2019-03-16T10:17:13.945Z,1.53
2019-03-16T10:19:44.938Z,1.57
2019-03-16T10:22:16.129Z,1.47
2019-03-16T10:24:51.287Z,0.83
2019-03-16T10:27:22.692Z,1.50
2019-03-16T10:29:54.294Z,2.33
2019-03-16T10:32:25.806Z,1.27
2019-03-16T10:34:57.509Z,3.30
2019-03-16T10:37:31.790Z,1.33
2019-03-16T10:40:02.735Z,1.73
2019-03-16T10:42:34.088Z,1.93
2019-03-16T10:45:05.886Z,1.97
2019-03-16T10:47:43.050Z,2.80
2019-03-16T10:50:18.249Z,2.33
2019-03-16T10:52:50.156Z,1.70
2019-03-16T10:55:21.789Z,2.37
2019-03-16T10:57:52.625Z,2.17
2019-03-16T11:00:23.309Z,2.67
2019-03-16T11:02:54.990Z,2.17
2019-03-16T11:05:25.591Z,2.57
2019-03-16T11:08:00.775Z,5.30
2019-03-16T11:10:31.515Z,2.15
2019-03-16T11:13:03.081Z,3.83
2019-03-16T11:15:33.964Z,1.25
2019-03-16T11:18:05.419Z,1.80
2019-03-16T11:20:36.483Z,2.05
2019-03-16T11:23:07.550Z,3.05
2019-03-16T11:25:39.809Z,1.80
2019-03-16T11:28:10.520Z,1.75
2019-03-16T11:30:41.889Z,2.60
2019-03-16T11:33:13.404Z,1.37
2019-03-16T11:35:44.504Z,2.80
2019-03-16T11:38:15.609Z,2.33
2019-03-16T11:40:47.775Z,2.10
2019-03-16T11:43:20.249Z,1.55
2019-03-16T11:45:51.309Z,1.85
2019-03-16T11:48:22.842Z,1.92
2019-03-16T11:51:04.275Z,2.62
2019-03-16T11:53:37.945Z,1.47
2019-03-16T11:56:18.230Z,2.72
2019-03-16T11:58:52.004Z,2.85
2019-03-16T12:01:25.581Z,1.92
2019-03-16T12:03:57.135Z,1.27
2019-03-16T12:06:28.962Z,1.25
2019-03-16T12:09:08.058Z,2.60
2019-03-16T12:11:38.939Z,1.77
2019-03-16T12:14:10.284Z,1.22
2019-03-16T12:16:41.306Z,1.50
2019-03-16T12:19:12.961Z,1.52
2019-03-16T12:21:51.412Z,1.80
2019-03-16T12:24:22.532Z,1.10
2019-03-16T12:26:56.498Z,1.92
2019-03-16T12:29:33.847Z,1.05
2019-03-16T12:32:00.771Z,1.57
2019-03-16T12:34:32.115Z,1.22
2019-03-16T12:37:04.019Z,1.65
2019-03-16T12:39:35.855Z,1.80
2019-03-16T12:42:18.192Z,0.85
2019-03-16T12:44:59.505Z,1.65
2019-03-16T12:47:34.761Z,1.65
2019-03-16T12:50:06.517Z,1.40
2019-03-16T12:52:47.944Z,1.77
2019-03-16T12:55:48.936Z,1.52
2019-03-16T12:58:20.384Z,1.70
2019-03-16T13:00:51.595Z,0.78
2019-03-16T13:03:23.000Z,1.12
2019-03-16T13:06:32.716Z,1.45
2019-03-16T13:09:04.521Z,2.17
2019-03-16T13:11:53.333Z,2.10
2019-03-16T13:14:25.076Z,2.17
2019-03-16T13:17:07.035Z,2.93
2019-03-16T13:19:38.528Z,1.00
2019-03-16T13:22:19.458Z,3.12
2019-03-16T13:24:50.976Z,1.93
2019-03-16T13:27:32.431Z,1.42
2019-03-16T13:30:15.862Z,2.05
2019-03-16T13:33:25.910Z,2.73
2019-03-16T13:36:31.155Z,1.17
2019-03-16T13:39:08.894Z,1.05
2019-03-16T13:41:41.755Z,1.20
2019-03-16T13:44:50.919Z,1.83
2019-03-16T13:47:22.118Z,2.27
2019-03-16T13:49:57.486Z,1.40
2019-03-16T13:52:37.705Z,2.50
2019-03-16T13:55:45.053Z,2.13
2019-03-16T13:58:29.148Z,1.60
2019-03-16T14:01:07.832Z,1.42
2019-03-16T14:03:39.104Z,0.97
2019-03-16T14:06:32.590Z,0.50
2019-03-16T14:09:04.249Z,2.43
2019-03-16T14:11:35.316Z,2.37
2019-03-16T14:14:29.347Z,2.15
2019-03-16T14:17:00.683Z,2.20
2019-03-16T14:19:52.961Z,2.17
2019-03-16T14:22:24.697Z,0.63
2019-03-16T14:24:56.171Z,1.75
2019-03-16T14:27:27.423Z,1.82
2019-03-16T14:29:58.803Z,1.17
2019-03-16T14:32:30.199Z,3.08
2019-03-16T14:35:01.662Z,1.87
2019-03-16T14:37:32.715Z,2.95
2019-03-16T14:40:03.155Z,2.80
2019-03-16T14:42:41.981Z,1.50
2019-03-16T14:45:14.197Z,0.80
2019-03-16T14:47:45.539Z,2.63
2019-03-16T14:50:19.111Z,1.53
2019-03-16T14:52:50.752Z,2.70
2019-03-16T14:55:21.772Z,1.87
2019-03-16T14:58:03.656Z,2.85
2019-03-16T15:00:38.609Z,2.22
2019-03-16T15:03:07.358Z,2.08
2019-03-16T15:05:38.822Z,1.85
2019-03-16T15:08:10.131Z,1.17
2019-03-16T15:10:41.122Z,3.87
2019-03-16T15:13:12.250Z,1.37
2019-03-16T15:15:42.882Z,2.05
2019-03-16T15:18:14.538Z,3.52
2019-03-16T15:20:44.863Z,1.95
2019-03-16T15:23:15.852Z,1.95
2019-03-16T15:25:46.885Z,1.87
2019-03-16T15:28:18.205Z,1.25
2019-03-16T15:31:02.375Z,2.00
2019-03-16T15:33:32.700Z,1.65
2019-03-16T15:36:03.949Z,3.50
2019-03-16T15:38:35.076Z,3.67
2019-03-16T15:41:06.072Z,3.17
2019-03-16T15:43:37.613Z,2.20
2019-03-16T15:46:08.666Z,3.98
2019-03-16T15:48:39.628Z,2.10
2019-03-16T15:51:10.842Z,6.95
2019-03-16T15:53:41.129Z,4.97
2019-03-16T15:56:11.812Z,2.15
2019-03-16T15:58:43.204Z,3.87
2019-03-16T16:01:14.511Z,1.40
2019-03-16T16:03:46.240Z,1.98
2019-03-16T16:06:16.875Z,1.80
2019-03-16T16:08:48.672Z,2.50
2019-03-16T16:11:20.114Z,2.10
2019-03-16T16:13:50.404Z,3.15
2019-03-16T16:16:21.079Z,2.45
2019-03-16T16:18:52.828Z,3.17
2019-03-16T16:21:23.713Z,1.90
2019-03-16T16:23:54.437Z,2.65
2019-03-16T16:26:25.457Z,2.15
2019-03-16T16:28:56.873Z,2.10
2019-03-16T16:31:28.574Z,3.37
2019-03-16T16:34:02.758Z,2.50
2019-03-16T16:36:33.086Z,2.15
2019-03-16T16:39:18.414Z,1.75
2019-03-16T16:41:50.206Z,1.67
2019-03-16T16:44:28.909Z,1.55
2019-03-16T16:47:00.294Z,2.15
2019-03-16T16:49:35.993Z,3.25
2019-03-16T16:52:07.071Z,2.15
2019-03-16T16:58:40.877Z,2.87
2019-03-16T17:01:12.018Z,1.57
2019-03-16T17:03:44.127Z,2.07
2019-03-16T17:06:15.461Z,1.97
2019-03-16T17:08:53.816Z,1.53
2019-03-16T17:11:26.442Z,2.17
2019-03-16T17:13:57.942Z,2.57
2019-03-16T17:16:39.702Z,4.87
2019-03-16T17:19:12.495Z,2.37
2019-03-16T17:22:30.094Z,3.13
2019-03-16T17:25:01.141Z,2.63
2019-03-16T17:27:32.710Z,4.83
2019-03-16T17:30:05.609Z,2.17
2019-03-16T17:33:00.482Z,2.33
2019-03-16T17:35:31.121Z,2.67
2019-03-16T17:39:03.309Z,2.43
2019-03-16T17:41:49.397Z,4.40
2019-03-16T17:44:41.021Z,4.67
2019-03-16T17:47:12.069Z,3.97
2019-03-16T17:49:43.107Z,6.67
2019-03-16T17:52:14.495Z,4.87
2019-03-16T17:54:52.360Z,3.13
2019-03-16T17:57:23.635Z,4.67
2019-03-16T17:59:55.766Z,5.60
2019-03-16T18:02:50.609Z,3.23
2019-03-16T18:05:21.625Z,5.40
2019-03-16T18:08:02.713Z,4.03
2019-03-16T18:10:33.393Z,3.37
2019-03-16T18:13:05.142Z,4.87
2019-03-16T18:15:36.225Z,4.20
2019-03-16T18:18:11.418Z,4.47
2019-03-16T18:20:42.603Z,3.73
2019-03-16T18:23:17.229Z,3.63
2019-03-16T18:25:52.655Z,2.40
2019-03-16T18:28:36.006Z,2.87
2019-03-16T18:31:13.999Z,2.73
2019-03-16T18:34:01.891Z,5.33
2019-03-16T18:36:40.529Z,3.10
2019-03-16T18:39:13.828Z,4.10
2019-03-16T18:41:44.871Z,2.87
2019-03-16T18:44:49.217Z,4.23
2019-03-16T18:47:20.295Z,2.80
2019-03-16T18:49:51.558Z,3.60
2019-03-16T18:52:29.851Z,3.00
2019-03-16T18:55:01.667Z,4.70
2019-03-16T18:57:33.087Z,5.93
2019-03-16T19:00:06.167Z,5.27
2019-03-16T19:02:49.296Z,4.37
2019-03-16T19:05:20.276Z,5.30
2019-03-16T19:07:52.960Z,4.73
2019-03-16T19:10:23.956Z,4.97
2019-03-16T19:12:55.327Z,5.20
2019-03-16T19:15:26.677Z,5.00
2019-03-16T19:18:00.914Z,6.87
2019-03-16T19:20:42.266Z,9.43
2019-03-16T19:23:40.333Z,5.00
2019-03-16T19:26:18.712Z,8.47
2019-03-16T19:28:50.697Z,10.47
2019-03-16T19:31:35.581Z,7.43
2019-03-16T19:34:25.973Z,9.60
2019-03-16T19:36:57.611Z,7.17
2019-03-16T19:39:28.969Z,7.27
2019-03-16T19:42:07.980Z,5.43
2019-03-16T19:44:39.681Z,7.80
2019-03-16T19:47:13.414Z,7.10
2019-03-16T19:49:45.169Z,10.50
2019-03-16T19:52:17.339Z,7.33
2019-03-16T19:54:48.507Z,4.20
2019-03-16T19:57:19.685Z,6.80
2019-03-16T19:59:51.073Z,5.20
2019-03-16T20:02:23.183Z,6.70
2019-03-16T20:04:56.639Z,4.60
2019-03-16T20:07:27.850Z,6.87
2019-03-16T20:10:00.523Z,6.13
2019-03-16T20:12:32.573Z,15.30
2019-03-16T20:15:04.330Z,5.90
2019-03-16T20:17:35.453Z,3.30
2019-03-16T20:20:09.428Z,3.83
2019-03-16T20:22:40.703Z,3.70
2019-03-16T20:25:11.948Z,3.43
2019-03-16T20:27:43.528Z,5.73
2019-03-16T20:30:26.833Z,4.83
2019-03-16T20:33:03.783Z,4.20
2019-03-16T20:35:30.083Z,4.50
2019-03-16T20:38:01.827Z,3.20
2019-03-16T20:40:33.625Z,5.90
2019-03-16T20:43:04.631Z,6.63
2019-03-16T20:45:35.852Z,5.10
2019-03-16T20:48:18.779Z,7.13
2019-03-16T20:50:49.791Z,6.50
2019-03-16T20:53:21.386Z,4.17
2019-03-16T20:55:53.086Z,3.97
2019-03-16T20:58:27.963Z,4.10
2019-03-16T21:00:59.966Z,2.27
2019-03-16T21:03:30.597Z,4.13
2019-03-16T21:06:01.670Z,2.63
2019-03-16T21:08:32.857Z,5.97
2019-03-16T21:11:11.444Z,4.63
2019-03-16T21:13:43.470Z,2.90
2019-03-16T21:16:14.360Z,3.70
2019-03-16T21:18:45.237Z,2.80
2019-03-16T21:21:16.618Z,2.70
2019-03-16T21:24:23.292Z,8.50
2019-03-16T21:26:54.646Z,6.73
2019-03-16T21:29:26.439Z,5.67
2019-03-16T21:31:57.505Z,3.00
2019-03-16T21:34:28.588Z,3.13
2019-03-16T21:37:07.832Z,3.33
2019-03-16T21:39:39.210Z,3.67
2019-03-16T21:42:21.792Z,3.50
2019-03-16T21:44:53.240Z,4.70
2019-03-16T21:47:23.916Z,3.60
2019-03-16T21:50:00.517Z,4.50
2019-03-16T21:52:31.875Z,4.67
2019-03-16T21:55:02.730Z,5.30
2019-03-16T21:57:33.421Z,5.23
2019-03-16T22:00:04.299Z,5.50
2019-03-16T22:02:35.670Z,5.80
2019-03-16T22:05:07.234Z,5.33
2019-03-16T22:07:38.306Z,5.43
2019-03-16T22:10:09.682Z,6.90
2019-03-16T22:12:40.026Z,4.43
2019-03-16T22:15:11.125Z,4.30
2019-03-16T22:17:49.635Z,4.37
2019-03-16T22:20:20.479Z,4.57
2019-03-16T22:22:51.927Z,5.00
2019-03-16T22:25:31.093Z,4.43
2019-03-16T22:28:19.137Z,5.43
2019-03-16T22:30:57.518Z,4.50
2019-03-16T22:33:34.568Z,4.30
2019-03-16T22:36:05.298Z,4.43
2019-03-16T22:38:36.602Z,5.60
2019-03-16T22:41:08.329Z,4.97
2019-03-16T22:43:44.127Z,6.10
2019-03-16T22:46:16.260Z,7.60
2019-03-16T22:48:56.589Z,6.97
2019-03-16T22:51:28.490Z,5.27
2019-03-16T22:53:59.866Z,5.97
2019-03-16T22:56:37.951Z,3.60
2019-03-16T22:59:10.581Z,3.90
2019-03-16T23:01:42.411Z,5.60
2019-03-16T23:04:13.919Z,3.00
2019-03-16T23:06:48.427Z,3.53
2019-03-16T23:09:22.059Z,2.80
2019-03-16T23:11:56.326Z,4.63
2019-03-16T23:14:27.895Z,2.80
2019-03-16T23:16:59.683Z,3.77
2019-03-16T23:19:30.776Z,2.97
2019-03-16T23:22:04.612Z,3.27
2019-03-16T23:24:38.576Z,3.60
2019-03-16T23:27:12.204Z,4.33
2019-03-16T23:29:49.728Z,4.03
2019-03-16T23:32:25.557Z,3.13
2019-03-16T23:34:57.346Z,3.63
2019-03-16T23:37:33.841Z,2.33
2019-03-16T23:40:06.581Z,3.47
2019-03-16T23:42:49.960Z,3.93
2019-03-16T23:45:21.708Z,2.83
2019-03-16T23:47:54.200Z,2.97
2019-03-16T23:50:25.631Z,3.13
2019-03-16T23:52:58.523Z,4.13
2019-03-16T23:55:33.595Z,3.07
2019-03-16T23:58:05.370Z,3.20
